Time;durP1;ratioP1;P1;durP2;ratioP2;P2;SDS_P1;SDS_P2;PMS_P1;PMS_P2;Temp;Humidity;BMP_temperature;BMP_pressure;BME280_temperature;BME280_humidity;BME280_pressure;Samples;Min_cycle;Max_cycle;Signal;HPM_P1;HPM_P2
2020/12/24 00:00:33;;;;;;;43.75;24.98;;;;;;;1.84;86.64;100549.61;1733544;82;20986;-53
2020/12/24 00:03:01;;;;;;;42.80;25.15;;;;;;;1.83;86.80;100549.29;1728734;83;21014;-53
2020/12/24 00:05:29;;;;;;;40.40;26.05;;;;;;;1.84;86.88;100549.61;1728541;83;21210;-53
2020/12/24 00:07:56;;;;;;;38.60;25.27;;;;;;;1.88;86.99;100552.20;1725586;82;21008;-53
2020/12/24 00:10:23;;;;;;;44.00;27.02;;;;;;;1.91;86.89;100554.48;1746476;82;21630;-53
2020/12/24 00:12:51;;;;;;;34.03;20.77;;;;;;;1.92;86.75;100550.73;1750508;82;21021;-52
2020/12/24 00:15:19;;;;;;;42.20;26.37;;;;;;;1.88;86.49;100550.84;1750605;82;20992;-52
2020/12/24 00:17:46;;;;;;;45.20;26.95;;;;;;;1.82;86.62;100548.47;1750619;82;21203;-52
2020/12/24 00:20:14;;;;;;;41.33;27.13;;;;;;;1.85;86.68;100553.45;1750517;80;22116;-52
2020/12/24 00:22:42;;;;;;;43.58;26.97;;;;;;;1.83;86.65;100554.70;1750530;82;20993;-54
2020/12/24 00:25:10;;;;;;;44.95;27.05;;;;;;;1.78;86.65;100547.76;1750833;81;20918;-52
2020/12/24 00:27:38;;;;;;;47.62;27.17;;;;;;;1.75;86.81;100538.71;1750662;82;20981;-53
2020/12/24 00:30:05;;;;;;;46.60;28.12;;;;;;;1.72;86.91;100536.72;1750741;81;21215;-52
2020/12/24 00:32:34;;;;;;;46.63;27.42;;;;;;;1.76;87.11;100532.22;1750729;82;21044;-52
2020/12/24 00:35:01;;;;;;;45.52;27.30;;;;;;;1.82;87.17;100530.86;1750701;81;20965;-53
2020/12/24 00:37:29;;;;;;;46.25;28.12;;;;;;;1.82;87.00;100537.63;1750389;82;20977;-53
2020/12/24 00:39:56;;;;;;;43.25;26.12;;;;;;;1.80;86.99;100532.97;1750735;82;20997;-52
2020/12/24 00:42:24;;;;;;;39.10;24.25;;;;;;;1.79;87.00;100523.70;1750670;82;22839;-53
2020/12/24 00:44:51;;;;;;;45.70;26.70;;;;;;;1.79;86.97;100531.83;1750598;82;21053;-52
2020/12/24 00:47:19;;;;;;;37.75;23.10;;;;;;;1.76;86.97;100535.79;1750552;82;21032;-54
2020/12/24 00:49:46;;;;;;;52.03;29.05;;;;;;;1.72;87.07;100539.42;1750537;82;21057;-53
2020/12/24 00:52:14;;;;;;;46.95;26.65;;;;;;;1.71;87.17;100552.65;1750417;82;21310;-53
2020/12/24 00:54:41;;;;;;;46.20;25.45;;;;;;;1.70;87.23;100547.45;1750667;82;21366;-53
2020/12/24 00:57:09;;;;;;;41.98;25.77;;;;;;;1.71;87.37;100548.58;1750599;82;20945;-53
2020/12/24 00:59:37;;;;;;;48.58;27.82;;;;;;;1.73;87.47;100557.34;1750550;82;20997;-53
2020/12/24 01:02:04;;;;;;;44.20;26.70;;;;;;;1.78;87.56;100545.87;1740405;81;21024;-53
2020/12/24 01:04:32;;;;;;;42.67;25.05;;;;;;;1.81;87.56;100550.04;1786874;80;21049;-54
2020/12/24 01:06:59;;;;;;;48.45;27.70;;;;;;;1.82;87.44;100549.00;1786844;80;21282;-53
2020/12/24 01:09:26;;;;;;;47.38;24.72;;;;;;;1.83;87.42;100550.64;1781160;80;21041;-54
2020/12/24 01:11:54;;;;;;;52.23;28.25;;;;;;;1.83;87.35;100553.35;1780671;80;21077;-54
2020/12/24 01:14:21;;;;;;;45.20;26.25;;;;;;;1.85;87.34;100553.98;1780715;80;22069;-53
2020/12/24 01:16:49;;;;;;;46.50;27.07;;;;;;;1.87;87.29;100551.39;1780556;80;20994;-53
2020/12/24 01:19:21;;;;;;;40.35;24.80;;;;;;;1.88;87.27;100547.61;1780847;80;21384;-53
2020/12/24 01:21:50;;;;;;;44.80;23.55;;;;;;;1.93;87.33;100552.41;1780812;80;21017;-53
2020/12/24 01:24:18;;;;;;;48.48;26.10;;;;;;;1.92;87.17;100550.73;1780975;80;21006;-53
2020/12/24 01:26:48;;;;;;;43.52;24.57;;;;;;;1.91;87.27;100558.55;1780747;80;21073;-53
2020/12/24 01:29:15;;;;;;;46.53;25.37;;;;;;;1.96;87.30;100554.69;1781105;80;21591;-53
2020/12/24 01:31:47;;;;;;;56.30;27.73;;;;;;;2.01;87.22;100556.22;1780920;80;21143;-53
2020/12/24 01:34:18;;;;;;;44.40;25.82;;;;;;;2.05;87.24;100555.28;1780802;80;21045;-53
2020/12/24 01:36:46;;;;;;;46.42;27.07;;;;;;;2.07;87.06;100560.80;1780788;80;21065;-53
2020/12/24 01:39:14;;;;;;;40.95;26.77;;;;;;;2.10;87.08;100550.06;1780880;80;21022;-53
2020/12/24 01:41:42;;;;;;;37.55;24.05;;;;;;;2.08;87.01;100540.77;1780813;80;21026;-53
2020/12/24 01:44:09;;;;;;;45.00;24.18;;;;;;;2.12;86.95;100551.20;1780761;80;21356;-53
2020/12/24 01:46:39;;;;;;;39.42;23.80;;;;;;;2.14;86.82;100549.09;1780771;80;21049;-53
2020/12/24 01:49:08;;;;;;;35.73;21.25;;;;;;;2.15;86.77;100537.22;1779407;80;20950;-54
2020/12/24 01:51:36;;;;;;;43.83;25.80;;;;;;;2.13;86.56;100531.16;1780862;80;20986;-54
2020/12/24 01:54:04;;;;;;;39.40;22.45;;;;;;;2.13;86.68;100536.58;1780768;80;21057;-54
2020/12/24 01:56:43;;;;;;;43.63;24.15;;;;;;;2.18;86.42;100534.08;1888936;76;22150;-52
2020/12/24 01:59:14;;;;;;;44.20;26.07;;;;;;;2.05;86.38;100538.48;1859468;77;21294;-53
2020/12/24 02:01:41;;;;;;;41.13;24.70;;;;;;;2.08;86.59;100535.34;1859751;77;21198;-53
2020/12/24 02:04:11;;;;;;;43.13;26.30;;;;;;;2.10;86.50;100541.08;1859685;77;20977;-53
2020/12/24 02:06:44;;;;;;;44.18;24.95;;;;;;;2.11;86.54;100537.34;1859704;77;21592;-53
2020/12/24 02:09:11;;;;;;;38.20;21.80;;;;;;;2.12;86.49;100532.23;1871365;76;20974;-52
2020/12/24 02:11:39;;;;;;;40.23;21.90;;;;;;;2.11;86.37;100540.05;1874360;76;20935;-53
2020/12/24 02:14:06;;;;;;;41.28;25.02;;;;;;;2.10;86.40;100535.66;1874654;76;21014;-53
2020/12/24 02:16:36;;;;;;;42.62;24.72;;;;;;;2.07;86.19;100536.41;1789354;80;21063;-53
2020/12/24 02:19:04;;;;;;;38.50;23.98;;;;;;;2.01;86.16;100535.90;1813089;79;21022;-53
2020/12/24 02:21:35;;;;;;;42.83;22.98;;;;;;;2.02;86.34;100538.92;1784436;79;21054;-54
2020/12/24 02:24:03;;;;;;;42.80;24.65;;;;;;;2.02;86.43;100542.98;1780931;80;21026;-54
2020/12/24 02:26:31;;;;;;;43.83;23.92;;;;;;;2.06;86.54;100533.92;1780988;80;21378;-54
2020/12/24 02:28:58;;;;;;;41.58;22.98;;;;;;;2.11;86.62;100526.50;1780716;80;21025;-54
2020/12/24 02:31:27;;;;;;;41.95;24.47;;;;;;;2.14;86.42;100524.70;1780879;80;21017;-54
2020/12/24 02:33:55;;;;;;;35.90;21.82;;;;;;;2.11;86.37;100514.30;1780991;80;21628;-54
2020/12/24 02:36:22;;;;;;;41.30;24.07;;;;;;;2.12;86.50;100522.22;1780961;80;20962;-54
2020/12/24 02:38:49;;;;;;;40.92;23.95;;;;;;;2.12;86.46;100531.70;1780893;79;21018;-54
2020/12/24 02:41:17;;;;;;;40.05;23.87;;;;;;;2.12;86.35;100530.34;1780884;80;21085;-54
2020/12/24 02:43:45;;;;;;;40.12;24.02;;;;;;;2.12;86.32;100529.52;1780860;80;21037;-54
2020/12/24 02:46:14;;;;;;;44.63;23.42;;;;;;;2.14;86.41;100523.35;1780760;80;21022;-54
2020/12/24 02:48:41;;;;;;;39.03;23.22;;;;;;;2.14;86.31;100531.48;1780998;80;21278;-54
2020/12/24 02:51:08;;;;;;;36.00;20.50;;;;;;;2.12;86.27;100537.66;1780899;80;21429;-54
2020/12/24 02:53:36;;;;;;;38.25;22.58;;;;;;;2.15;86.44;100531.80;1780773;80;21002;-54
2020/12/24 02:56:04;;;;;;;38.50;23.55;;;;;;;2.16;86.39;100530.23;1784537;80;21029;-54
2020/12/24 02:58:32;;;;;;;43.48;24.20;;;;;;;2.16;86.38;100530.73;1786605;80;21042;-54
2020/12/24 03:01:00;;;;;;;41.60;23.05;;;;;;;2.16;86.45;100526.66;1786840;80;21003;-54
2020/12/24 03:03:28;;;;;;;43.00;23.47;;;;;;;2.18;86.46;100531.36;1786690;80;21271;-54
2020/12/24 03:05:55;;;;;;;38.80;21.85;;;;;;;2.16;86.32;100532.08;1786583;80;20990;-54
2020/12/24 03:08:23;;;;;;;44.65;24.15;;;;;;;2.16;86.41;100531.58;1784637;79;21488;-54
2020/12/24 03:10:51;;;;;;;36.33;22.37;;;;;;;2.19;86.39;100532.50;1787023;80;21047;-54
2020/12/24 03:13:18;;;;;;;33.23;20.45;;;;;;;2.21;86.29;100534.99;1787061;80;21027;-54
2020/12/24 03:15:46;;;;;;;41.05;24.50;;;;;;;2.19;86.21;100527.62;1787052;80;22169;-54
2020/12/24 03:18:14;;;;;;;37.05;21.55;;;;;;;2.15;86.25;100521.78;1786945;80;21038;-54
2020/12/24 03:20:43;;;;;;;35.60;21.68;;;;;;;2.13;86.32;100513.55;1786954;80;21038;-54
2020/12/24 03:23:10;;;;;;;44.60;24.85;;;;;;;2.10;86.34;100516.19;1786938;80;21071;-53
2020/12/24 03:25:38;;;;;;;47.53;24.55;;;;;;;2.08;86.30;100515.56;1787030;80;21031;-53
2020/12/24 03:28:05;;;;;;;41.95;24.92;;;;;;;2.08;86.40;100515.02;1786969;80;23503;-53
2020/12/24 03:30:33;;;;;;;38.50;22.77;;;;;;;2.09;86.55;100510.45;1786988;80;21059;-54
2020/12/24 03:33:00;;;;;;;39.42;21.95;;;;;;;2.10;86.40;100511.28;1786892;80;21361;-53
2020/12/24 03:35:28;;;;;;;35.60;20.68;;;;;;;2.07;86.43;100507.11;1786846;80;21038;-53
2020/12/24 03:37:55;;;;;;;41.33;24.82;;;;;;;2.05;86.46;100505.98;1786956;80;21553;-53
2020/12/24 03:40:23;;;;;;;38.58;22.05;;;;;;;2.01;86.59;100503.38;1787007;80;22717;-53
2020/12/24 03:42:50;;;;;;;42.53;24.27;;;;;;;2.01;86.61;100504.73;1786904;80;21550;-53
2020/12/24 03:45:17;;;;;;;42.53;24.98;;;;;;;1.98;86.55;100509.23;1787030;80;21521;-53
2020/12/24 03:47:47;;;;;;;36.15;22.05;;;;;;;1.96;86.63;100499.16;1786846;80;20975;-53
2020/12/24 03:50:16;;;;;;;37.70;22.30;;;;;;;1.94;86.89;100491.75;1786719;80;21074;-53
2020/12/24 03:52:43;;;;;;;36.93;21.23;;;;;;;1.95;86.89;100491.24;1786717;80;21259;-53
2020/12/24 03:55:11;;;;;;;39.35;25.27;;;;;;;1.94;86.96;100487.68;1786405;80;21047;-53
2020/12/24 03:57:39;;;;;;;29.72;19.65;;;;;;;1.93;87.06;100484.69;1783729;80;20988;-53
2020/12/24 04:00:07;;;;;;;37.55;20.97;;;;;;;1.95;87.09;100482.58;1783830;80;21047;-53
2020/12/24 04:02:35;;;;;;;38.95;22.50;;;;;;;1.90;86.94;100479.67;1784036;80;21003;-53
2020/12/24 04:05:02;;;;;;;38.65;22.37;;;;;;;1.86;87.00;100480.64;1783857;80;21578;-53
2020/12/24 04:07:30;;;;;;;38.75;21.20;;;;;;;1.86;87.18;100479.82;1783131;79;21045;-53
2020/12/24 04:09:57;;;;;;;43.52;23.38;;;;;;;1.89;87.22;100478.03;1776960;80;21331;-53
2020/12/24 04:12:25;;;;;;;39.70;21.85;;;;;;;1.87;87.15;100482.31;1777000;80;21485;-53
2020/12/24 04:14:53;;;;;;;32.30;20.80;;;;;;;1.80;87.01;100479.30;1777005;80;20994;-54
2020/12/24 04:17:20;;;;;;;38.45;22.45;;;;;;;1.75;87.21;100478.59;1776787;80;21388;-54
2020/12/24 04:19:48;;;;;;;34.18;20.25;;;;;;;1.75;87.33;100480.48;1776909;79;20970;-54
2020/12/24 04:22:15;;;;;;;38.00;23.62;;;;;;;1.75;87.41;100472.36;1777009;80;21688;-54
2020/12/24 04:24:43;;;;;;;38.05;23.00;;;;;;;1.70;87.40;100472.47;1776893;80;21039;-54
2020/12/24 04:27:10;;;;;;;37.25;21.77;;;;;;;1.67;87.57;100470.70;1777063;80;21356;-54
2020/12/24 04:29:37;;;;;;;39.75;22.00;;;;;;;1.65;87.77;100470.92;1776849;80;21857;-54
2020/12/24 04:32:05;;;;;;;35.03;20.23;;;;;;;1.64;87.83;100474.66;1776977;80;20994;-54
2020/12/24 04:34:33;;;;;;;37.15;21.60;;;;;;;1.62;87.82;100474.05;1776812;80;21037;-53
2020/12/24 04:37:01;;;;;;;38.28;21.70;;;;;;;1.62;87.94;100472.70;1776905;80;21026;-53
2020/12/24 04:39:28;;;;;;;23.77;16.30;;;;;;;1.64;88.00;100474.66;1776951;80;20971;-53
2020/12/24 04:41:58;;;;;;;36.10;20.80;;;;;;;1.63;88.05;100475.73;1776917;80;21198;-54
2020/12/24 04:44:27;;;;;;;35.63;20.27;;;;;;;1.59;88.00;100472.28;1776958;80;21014;-53
2020/12/24 04:46:55;;;;;;;31.77;18.12;;;;;;;1.56;88.12;100473.56;1776902;80;21050;-54
2020/12/24 04:49:26;;;;;;;33.80;19.90;;;;;;;1.57;88.31;100465.73;1776815;80;21617;-53
2020/12/24 04:51:53;;;;;;;35.92;21.60;;;;;;;1.62;88.39;100467.28;1777031;80;21081;-53
2020/12/24 04:54:21;;;;;;;35.65;20.50;;;;;;;1.66;88.49;100472.59;1776880;80;21205;-53
2020/12/24 04:56:48;;;;;;;39.73;23.27;;;;;;;1.70;88.33;100463.50;1778697;80;21038;-53
2020/12/24 04:59:18;;;;;;;33.75;19.75;;;;;;;1.70;88.29;100464.35;1779838;80;21030;-53
2020/12/24 05:01:52;;;;;;;36.40;21.82;;;;;;;1.76;88.37;100460.46;1779814;80;21616;-53
2020/12/24 05:04:19;;;;;;;34.95;21.87;;;;;;;1.78;88.28;100455.67;1779991;80;21013;-52
2020/12/24 05:06:47;;;;;;;36.53;21.05;;;;;;;1.80;88.00;100463.05;1779970;80;21975;-53
2020/12/24 05:09:15;;;;;;;37.10;20.55;;;;;;;1.76;87.83;100472.64;1763770;80;21078;-53
2020/12/24 05:11:44;;;;;;;37.53;21.50;;;;;;;1.73;87.92;100473.40;1741121;80;21424;-53
2020/12/24 05:14:19;;;;;;;27.00;17.27;;;;;;;1.68;87.83;100477.25;1794582;80;21054;-54
2020/12/24 05:17:07;;;;;;;37.83;21.05;;;;;;;1.66;88.03;100474.47;1794633;80;26572;-56
2020/12/24 05:19:48;;;;;;;33.90;19.85;;;;;;;1.67;88.01;100468.84;1794731;80;21362;-54
2020/12/24 05:22:19;;;;;;;34.88;20.75;;;;;;;1.70;88.16;100468.41;1794654;80;21686;-54
2020/12/24 05:24:46;;;;;;;33.55;19.40;;;;;;;1.77;88.32;100464.84;1794660;80;21057;-54
2020/12/24 05:27:16;;;;;;;31.85;18.30;;;;;;;1.79;88.02;100460.06;1794638;80;21053;-54
2020/12/24 05:29:45;;;;;;;33.10;18.90;;;;;;;1.75;87.95;100458.82;1794478;80;21098;-54
2020/12/24 05:32:12;;;;;;;37.33;20.43;;;;;;;1.72;87.93;100464.13;1794904;80;21563;-53
2020/12/24 05:34:40;;;;;;;33.98;19.02;;;;;;;1.72;87.97;100458.19;1794467;80;21066;-52
2020/12/24 05:37:14;;;;;;;28.15;18.90;;;;;;;1.74;88.09;100463.38;1794786;80;20989;-53
2020/12/24 05:39:44;;;;;;;35.50;20.45;;;;;;;1.73;88.05;100469.33;1794650;80;21523;-53
2020/12/24 05:42:11;;;;;;;35.08;19.75;;;;;;;1.78;88.25;100474.64;1793936;80;21033;-53
2020/12/24 05:44:38;;;;;;;34.45;19.95;;;;;;;1.84;88.16;100473.77;1792606;79;21152;-54
2020/12/24 05:47:06;;;;;;;33.02;20.32;;;;;;;1.86;88.05;100477.11;1790226;80;21025;-53
2020/12/24 05:49:34;;;;;;;32.88;21.15;;;;;;;1.88;88.06;100475.01;1790268;80;20985;-54
2020/12/24 05:52:06;;;;;;;32.45;19.50;;;;;;;1.93;87.88;100481.13;1790636;80;21120;-53
2020/12/24 05:54:36;;;;;;;33.92;18.85;;;;;;;1.89;87.72;100482.09;1790768;80;21009;-54
2020/12/24 05:57:04;;;;;;;34.73;17.87;;;;;;;1.88;87.73;100478.53;1790633;80;22196;-54
2020/12/24 05:59:32;;;;;;;35.80;19.52;;;;;;;1.85;87.74;100480.86;1790548;80;21001;-54
2020/12/24 06:02:14;;;;;;;33.33;20.00;;;;;;;1.85;87.87;100474.09;1790532;80;21041;-55
2020/12/24 06:04:51;;;;;;;34.40;20.62;;;;;;;1.89;87.96;100472.08;1790735;80;21095;-52
2020/12/24 06:07:30;;;;;;;29.18;17.65;;;;;;;1.97;88.04;100460.19;1790565;79;21211;-54
2020/12/24 06:10:06;;;;;;;33.42;20.60;;;;;;;2.02;87.92;100452.76;1813467;79;21001;-53
2020/12/24 06:12:34;;;;;;;28.55;16.05;;;;;;;2.04;87.95;100450.14;1813294;78;21049;-53
2020/12/24 06:15:03;;;;;;;25.80;15.65;;;;;;;2.07;87.87;100447.00;1813532;78;21033;-53
2020/12/24 06:17:32;;;;;;;24.77;14.07;;;;;;;2.08;87.66;100441.86;1813251;79;21052;-53
2020/12/24 06:19:59;;;;;;;32.08;18.92;;;;;;;2.06;87.56;100433.67;1813731;77;20954;-54
2020/12/24 06:22:29;;;;;;;31.10;18.02;;;;;;;2.06;87.60;100437.20;1813407;78;22352;-54
2020/12/24 06:24:58;;;;;;;33.55;20.62;;;;;;;2.13;87.72;100437.17;1813446;78;21659;-53
2020/12/24 06:27:48;;;;;;;33.08;18.15;;;;;;;2.15;87.46;100445.91;1813474;79;21140;-53
2020/12/24 06:30:28;;;;;;;31.27;18.02;;;;;;;2.19;87.33;100444.96;1846446;76;22743;-51
2020/12/24 06:33:03;;;;;;;32.95;17.87;;;;;;;2.14;87.35;100446.13;1816793;79;20967;-52
2020/12/24 06:35:38;;;;;;;33.78;21.05;;;;;;;2.14;87.40;100451.54;1816180;78;21150;-52
2020/12/24 06:38:08;;;;;;;33.58;20.43;;;;;;;2.16;87.33;100445.37;1816656;79;20965;-53
2020/12/24 06:40:37;;;;;;;36.48;20.23;;;;;;;2.14;87.10;100432.57;1818397;77;21625;-53
2020/12/24 06:43:07;;;;;;;37.88;19.75;;;;;;;2.06;87.07;100427.72;1827059;77;21591;-54
2020/12/24 06:45:38;;;;;;;32.23;18.27;;;;;;;2.03;87.15;100428.66;1810067;77;21087;-52
2020/12/24 06:51:04;;;;;;;34.43;18.52;;;;;;;2.04;87.11;100427.12;1843362;76;22674;-54
2020/12/24 06:53:36;;;;;;;33.13;19.67;;;;;;;1.95;87.22;100436.53;1816281;78;21559;-54
2020/12/24 06:56:27;;;;;;;34.25;19.00;;;;;;;1.93;87.27;100439.98;1816579;79;21483;-53
2020/12/24 06:59:03;;;;;;;35.48;18.98;;;;;;;1.91;87.36;100435.30;1782157;79;20970;-53
2020/12/24 07:01:35;;;;;;;34.70;20.12;;;;;;;1.93;87.50;100426.45;1816539;79;20958;-53
2020/12/24 07:04:05;;;;;;;30.62;18.20;;;;;;;1.94;87.35;100418.60;1816499;79;20966;-53
2020/12/24 07:06:49;;;;;;;32.90;19.65;;;;;;;1.94;87.31;100428.09;1816533;78;21307;-53
2020/12/24 07:09:26;;;;;;;32.10;18.10;;;;;;;1.92;87.34;100429.38;1818751;77;21127;-54
2020/12/24 07:11:54;;;;;;;;;;;;;;;1.87;87.36;100428.64;1822336;78;21059;-53
2020/12/24 07:14:40;;;;;;;52.35;32.00;;;;;;;1.83;87.39;100424.20;1819756;78;20478;-54
2020/12/24 07:17:13;;;;;;;32.55;20.62;;;;;;;1.81;87.52;100423.56;1815465;77;20948;-53
2020/12/24 07:19:44;;;;;;;26.82;16.10;;;;;;;1.84;87.66;100425.87;1811097;78;21574;-53
2020/12/24 07:22:16;;;;;;;30.77;19.17;;;;;;;1.81;87.62;100430.87;1734188;82;21218;-54
2020/12/24 07:25:02;;;;;;;37.83;23.15;;;;;;;1.77;87.61;100412.84;1732111;81;21101;-53
2020/12/24 07:27:30;;;;;;;;;;;;;;;1.73;87.83;100408.41;1734577;80;21139;-53
2020/12/24 07:29:58;;;;;;;29.65;18.55;;;;;;;1.75;87.99;100417.66;1762588;80;20205;-53
2020/12/24 07:32:25;;;;;;;31.00;18.67;;;;;;;1.75;88.05;100413.59;1750279;80;21049;-53
2020/12/24 07:34:56;;;;;;;25.85;15.53;;;;;;;1.77;88.23;100403.91;1772017;79;21282;-53
2020/12/24 07:37:25;;;;;;;31.62;19.85;;;;;;;1.78;88.23;100398.27;1764635;80;21061;-53
2020/12/24 07:39:53;;;;;;;29.70;17.55;;;;;;;1.83;88.17;100413.87;1767429;80;21053;-53
2020/12/24 07:42:24;;;;;;;30.48;17.67;;;;;;;1.82;88.05;100412.23;1769669;79;21712;-54
2020/12/24 07:44:51;;;;;;;28.32;15.63;;;;;;;1.78;88.12;100410.45;1763857;80;21038;-53
2020/12/24 07:47:19;;;;;;;25.05;16.52;;;;;;;1.77;88.21;100413.38;1760594;79;21344;-56
2020/12/24 07:49:53;;;;;;;30.08;19.00;;;;;;;1.72;88.26;100412.15;1766374;80;21041;-53
2020/12/24 07:52:20;;;;;;;29.95;18.02;;;;;;;1.67;88.39;100413.33;1772913;79;21069;-51
2020/12/24 07:54:48;;;;;;;33.35;17.70;;;;;;;1.66;88.54;100407.60;1776270;80;21045;-52
2020/12/24 07:57:22;;;;;;;29.42;17.00;;;;;;;1.67;88.70;100406.56;1784073;80;21045;-54
2020/12/24 08:00:01;;;;;;;27.73;16.52;;;;;;;1.67;88.77;100413.33;1780903;80;21207;-54
2020/12/24 08:02:30;;;;;;;32.67;17.87;;;;;;;1.70;88.71;100416.11;1777554;80;21079;-55
2020/12/24 08:04:58;;;;;;;29.42;15.75;;;;;;;1.66;88.75;100413.55;1771967;79;21064;-57
2020/12/24 08:07:26;;;;;;;37.28;20.12;;;;;;;1.66;88.83;100420.32;1775665;79;21131;-56
2020/12/24 08:09:54;;;;;;;37.58;20.45;;;;;;;1.65;88.79;100414.05;1757640;80;21000;-55
2020/12/24 08:12:23;;;;;;;29.57;17.27;;;;;;;1.63;88.86;100413.95;1784312;80;21195;-56
2020/12/24 08:14:53;;;;;;;37.45;18.85;;;;;;;1.60;88.96;100411.18;1785665;80;21076;-55
2020/12/24 08:20:08;;;;;;;31.97;18.85;;;;;;;1.64;89.19;100415.63;1814548;78;22750;-55
2020/12/24 08:22:52;;;;;;;27.67;17.82;;;;;;;1.54;89.20;100422.34;1769646;80;21053;-56
2020/12/24 08:25:19;;;;;;;34.73;20.35;;;;;;;1.55;89.40;100423.98;1791693;79;21383;-54
2020/12/24 08:27:47;;;;;;;32.20;19.70;;;;;;;1.59;89.40;100423.05;1796024;79;21648;-55
2020/12/24 08:30:15;;;;;;;37.80;20.55;;;;;;;1.59;89.32;100420.34;1750126;80;21016;-55
2020/12/24 08:32:42;;;;;;;29.70;16.85;;;;;;;1.58;89.26;100422.73;1782491;79;22081;-56
2020/12/24 08:35:12;;;;;;;30.45;16.32;;;;;;;1.57;89.24;100414.29;1776398;79;21097;-57
2020/12/24 08:37:40;;;;;;;33.45;19.10;;;;;;;1.58;89.38;100410.55;1771085;79;21365;-55
2020/12/24 08:40:24;;;;;;;31.02;18.95;;;;;;;1.61;89.37;100406.59;1718808;81;21604;-56
2020/12/24 08:42:53;;;;;;;30.00;16.55;;;;;;;1.59;89.20;100405.45;1711778;82;20966;-56
2020/12/24 08:45:20;;;;;;;26.95;16.25;;;;;;;1.56;89.08;100399.11;1728704;82;21158;-55
2020/12/24 08:47:47;;;;;;;25.17;16.57;;;;;;;1.52;88.95;100399.23;1721909;82;20970;-55
2020/12/24 08:50:30;;;;;;;29.52;17.87;;;;;;;1.48;89.09;100396.64;1708341;83;21372;-57
2020/12/24 08:52:59;;;;;;;33.15;19.40;;;;;;;1.47;89.23;100395.81;1687996;83;20993;-56
2020/12/24 08:55:28;;;;;;;30.40;16.80;;;;;;;1.49;89.23;100398.31;1703911;82;21613;-56
2020/12/24 08:57:56;;;;;;;28.90;17.23;;;;;;;1.48;89.17;100391.23;1712881;83;21064;-55
2020/12/24 09:00:24;;;;;;;25.25;16.30;;;;;;;1.50;89.21;100374.23;1719327;83;20994;-56
2020/12/24 09:02:52;;;;;;;27.42;16.12;;;;;;;1.52;89.24;100374.87;1702964;83;22708;-56
2020/12/24 09:05:25;;;;;;;24.00;14.98;;;;;;;1.52;88.87;100371.63;1705106;83;21030;-57
2020/12/24 09:07:54;;;;;;;22.73;14.90;;;;;;;1.49;88.82;100376.66;1708572;82;21487;-54
2020/12/24 09:10:26;;;;;;;22.37;14.07;;;;;;;1.48;88.78;100364.97;1711384;82;21709;-54
2020/12/24 09:12:58;;;;;;;21.12;14.15;;;;;;;1.50;88.86;100357.98;1703985;83;21026;-56
2020/12/24 09:15:26;;;;;;;21.37;14.05;;;;;;;1.57;88.90;100364.20;1714645;83;22171;-56
2020/12/24 09:17:57;;;;;;;24.55;15.05;;;;;;;1.60;88.44;100355.67;1715999;83;21088;-57
2020/12/24 09:20:29;;;;;;;25.50;14.83;;;;;;;1.57;88.08;100372.33;1702389;82;21057;-56
2020/12/24 09:23:01;;;;;;;19.05;13.70;;;;;;;1.54;88.03;100372.77;1706642;83;21015;-57
2020/12/24 09:25:34;;;;;;;28.00;17.62;;;;;;;1.53;88.04;100368.41;1710584;83;20987;-55
2020/12/24 09:28:03;;;;;;;23.12;16.48;;;;;;;1.54;88.12;100379.53;1713971;82;21278;-55
2020/12/24 09:30:30;;;;;;;18.62;13.53;;;;;;;1.58;88.29;100355.58;1703195;83;20987;-56
2020/12/24 09:32:59;;;;;;;23.67;16.40;;;;;;;1.66;88.08;100359.40;1716254;83;21090;-54
2020/12/24 09:35:27;;;;;;;21.20;16.20;;;;;;;1.64;87.64;100350.64;1714155;81;21016;-56
2020/12/24 09:37:55;;;;;;;21.27;14.07;;;;;;;1.62;87.56;100347.34;1708572;83;21055;-53
2020/12/24 09:40:23;;;;;;;19.52;13.48;;;;;;;1.63;87.75;100343.56;1700672;83;21134;-58
2020/12/24 09:42:50;;;;;;;19.80;14.70;;;;;;;1.67;87.50;100345.64;1704057;82;21577;-56
2020/12/24 09:45:18;;;;;;;17.92;12.58;;;;;;;1.64;87.32;100354.17;1711998;81;21459;-56
2020/12/24 09:47:46;;;;;;;18.37;14.10;;;;;;;1.59;87.31;100340.47;1711148;83;21710;-55
2020/12/24 09:50:13;;;;;;;23.42;15.43;;;;;;;1.58;87.15;100340.69;1708620;82;21054;-55
2020/12/24 09:52:41;;;;;;;23.27;15.72;;;;;;;1.54;87.28;100325.38;1715011;83;21392;-56
2020/12/24 09:55:08;;;;;;;30.55;20.48;;;;;;;1.60;87.52;100319.13;1714064;83;21042;-55
2020/12/24 09:57:36;;;;;;;23.20;16.40;;;;;;;1.66;87.50;100314.19;1704915;83;21058;-56
2020/12/24 10:00:08;;;;;;;19.17;14.83;;;;;;;1.72;87.40;100316.02;1721576;81;21015;-57
2020/12/24 10:02:36;;;;;;;18.65;13.65;;;;;;;1.77;87.23;100305.06;1706331;83;21049;-56
2020/12/24 10:05:06;;;;;;;22.98;13.75;;;;;;;1.75;87.04;100290.92;1701791;83;21205;-59
2020/12/24 10:07:34;;;;;;;21.33;14.28;;;;;;;1.77;87.17;100295.05;1698358;83;21572;-57
2020/12/24 10:10:02;;;;;;;20.30;15.35;;;;;;;1.82;87.08;100294.41;1723326;81;21005;-54
2020/12/24 10:12:30;;;;;;;20.62;15.50;;;;;;;1.86;86.87;100290.22;1706459;82;21003;-57
2020/12/24 10:14:58;;;;;;;23.05;15.35;;;;;;;1.88;86.81;100284.05;1706587;81;21024;-56
2020/12/24 10:17:25;;;;;;;21.57;12.80;;;;;;;1.92;86.88;100281.20;1709024;81;21343;-56
2020/12/24 10:19:53;;;;;;;18.98;14.28;;;;;;;1.96;86.82;100264.83;1711532;82;21015;-55
2020/12/24 10:22:22;;;;;;;22.80;15.63;;;;;;;2.00;86.62;100268.75;1708722;83;21042;-56
2020/12/24 10:24:52;;;;;;;23.85;17.27;;;;;;;1.98;86.38;100262.71;1708935;83;20981;-55
2020/12/24 10:27:19;;;;;;;21.60;16.05;;;;;;;1.96;86.47;100264.83;1701613;82;21006;-56
2020/12/24 10:29:47;;;;;;;29.07;17.17;;;;;;;1.97;86.54;100259.72;1701842;82;21379;-57
2020/12/24 10:32:14;;;;;;;21.10;14.53;;;;;;;1.98;86.37;100267.31;1701396;82;21715;-55
2020/12/24 10:34:42;;;;;;;23.42;16.30;;;;;;;1.96;86.42;100255.84;1705705;81;21096;-55
2020/12/24 10:37:10;;;;;;;25.75;18.27;;;;;;;1.97;86.42;100253.45;1716116;81;21574;-55
2020/12/24 10:39:38;;;;;;;22.75;16.10;;;;;;;1.98;86.47;100245.64;1728756;81;20965;-57
2020/12/24 10:42:05;;;;;;;25.77;16.93;;;;;;;1.99;86.55;100248.13;1722751;81;21550;-56
2020/12/24 10:44:32;;;;;;;24.77;18.12;;;;;;;2.00;86.43;100251.14;1723768;82;21006;-57
2020/12/24 10:47:00;;;;;;;26.35;19.60;;;;;;;1.96;86.39;100249.08;1723703;83;20994;-60
2020/12/24 10:49:27;;;;;;;30.50;20.20;;;;;;;1.95;86.49;100238.78;1723694;81;20990;-58
2020/12/24 10:51:55;;;;;;;24.57;17.42;;;;;;;1.95;86.56;100237.42;1721811;83;21061;-59
2020/12/24 10:54:23;;;;;;;26.17;17.48;;;;;;;1.92;86.60;100232.45;1723927;81;21361;-58
2020/12/24 10:56:52;;;;;;;24.72;17.80;;;;;;;1.94;86.87;100230.34;1723571;83;20997;-58
2020/12/24 10:59:20;;;;;;;30.15;19.37;;;;;;;1.95;86.75;100225.77;1721444;81;21006;-59
2020/12/24 11:01:48;;;;;;;31.75;19.25;;;;;;;1.90;86.66;100220.98;1715624;81;21014;-60
2020/12/24 11:04:16;;;;;;;28.10;19.62;;;;;;;1.84;86.87;100223.23;1697942;82;21078;-58
2020/12/24 11:06:45;;;;;;;27.37;16.32;;;;;;;1.78;87.08;100218.71;1695245;83;21195;-56
2020/12/24 11:09:14;;;;;;;26.05;17.75;;;;;;;1.77;87.27;100215.16;1710090;83;21002;-55
2020/12/24 11:11:42;;;;;;;31.55;20.02;;;;;;;1.81;87.40;100204.19;1714772;81;21731;-55
2020/12/24 11:14:09;;;;;;;29.75;18.80;;;;;;;1.85;87.36;100201.88;1716124;81;21707;-55
2020/12/24 11:16:37;;;;;;;24.07;15.63;;;;;;;1.87;87.23;100203.83;1720500;81;21168;-56
2020/12/24 11:19:04;;;;;;;23.15;15.43;;;;;;;1.85;87.16;100197.82;1767524;80;21368;-56
2020/12/24 11:21:35;;;;;;;27.93;18.07;;;;;;;1.85;87.24;100197.82;1707041;81;21007;-55
2020/12/24 11:24:06;;;;;;;25.20;18.20;;;;;;;1.86;87.07;100192.72;1703660;83;21398;-55
2020/12/24 11:26:34;;;;;;;30.23;17.55;;;;;;;1.82;87.11;100195.02;1709507;82;20993;-56
2020/12/24 11:29:04;;;;;;;25.40;17.62;;;;;;;1.80;87.12;100189.02;1687195;84;20996;-57
2020/12/24 11:31:35;;;;;;;24.23;16.07;;;;;;;1.82;87.27;100191.50;1705016;82;21986;-57